createdAt,value
2023-01-15T00:02:42.867Z,860.75
2023-01-15T00:05:46.274Z,827.55
2023-01-15T00:08:51.043Z,839.58
2023-01-15T00:11:55.126Z,728.13
2023-01-15T00:14:59.963Z,761.05
2023-01-15T00:18:03.632Z,719.97
2023-01-15T00:21:08.865Z,702.80
2023-01-15T00:24:29.883Z,845.78
2023-01-15T00:27:44.237Z,695.63
2023-01-15T00:30:49.170Z,722.13
2023-01-15T00:33:52.557Z,693.00
2023-01-15T00:36:56.212Z,805.00
2023-01-15T00:39:59.547Z,816.70
2023-01-15T00:43:02.929Z,777.05
2023-01-15T00:46:09.536Z,761.22
2023-01-15T00:49:13.798Z,747.97
2023-01-15T00:52:17.587Z,768.75
2023-01-15T00:55:21.402Z,754.22
2023-01-15T00:58:24.900Z,878.17
2023-01-15T01:01:29.942Z,729.13
2023-01-15T01:04:33.490Z,830.92
2023-01-15T01:07:36.914Z,741.08
2023-01-15T01:10:40.281Z,740.10
2023-01-15T01:13:44.326Z,610.72
2023-01-15T01:16:49.091Z,536.85
2023-01-15T01:19:52.380Z,498.48
2023-01-15T01:22:55.929Z,691.90
2023-01-15T01:25:59.420Z,480.13
2023-01-15T01:29:02.862Z,593.20
2023-01-15T01:32:07.740Z,557.20
2023-01-15T01:35:11.780Z,826.33
2023-01-15T01:38:15.084Z,580.92
2023-01-15T01:41:19.079Z,609.75
2023-01-15T01:45:00.876Z,741.47
2023-01-15T01:48:08.352Z,576.03
2023-01-15T01:51:12.324Z,722.72
2023-01-15T01:54:21.004Z,852.85
2023-01-15T01:57:25.348Z,667.65
2023-01-15T02:00:29.731Z,619.10
2023-01-15T02:03:38.271Z,703.88
2023-01-15T02:06:43.741Z,701.83
2023-01-15T02:09:47.074Z,493.27
2023-01-15T02:12:57.840Z,883.42
2023-01-15T02:16:11.156Z,498.05
2023-01-15T02:19:29.303Z,545.20
2023-01-15T02:22:45.145Z,678.00
2023-01-15T02:26:09.434Z,517.17
2023-01-15T02:29:23.845Z,566.47
2023-01-15T02:32:36.364Z,508.10
2023-01-15T02:35:45.179Z,617.60
2023-01-15T02:38:52.338Z,491.42
2023-01-15T02:41:58.289Z,658.90
2023-01-15T02:45:10.288Z,611.75
2023-01-15T02:48:16.473Z,565.05
2023-01-15T02:51:24.023Z,618.92
2023-01-15T02:54:33.068Z,695.13
2023-01-15T02:57:40.112Z,662.27
2023-01-15T03:04:18.609Z,509.80
2023-01-15T03:07:26.452Z,1013.03
2023-01-15T03:10:39.309Z,425.48
2023-01-15T03:13:48.686Z,620.80
2023-01-15T03:16:56.475Z,447.90
2023-01-15T03:20:08.021Z,593.50
2023-01-15T03:23:15.329Z,969.63
2023-01-15T03:26:18.650Z,478.40
2023-01-15T03:29:23.505Z,715.85
2023-01-15T03:32:31.282Z,472.00
2023-01-15T03:35:50.090Z,460.85
2023-01-15T03:39:07.167Z,503.08
2023-01-15T03:42:44.947Z,800.40
2023-01-15T03:45:54.425Z,437.63
2023-01-15T03:49:02.995Z,477.27
2023-01-15T03:52:17.624Z,492.17
2023-01-15T03:55:25.769Z,464.67
2023-01-15T03:58:42.613Z,506.95
2023-01-15T04:01:51.547Z,856.70
2023-01-15T04:04:59.911Z,537.15
2023-01-15T04:08:07.411Z,717.13
2023-01-15T04:11:11.982Z,499.92
2023-01-15T04:14:23.200Z,521.47
2023-01-15T04:17:30.354Z,451.48
2023-01-15T04:20:34.607Z,445.48
2023-01-15T04:23:39.313Z,656.60
2023-01-15T04:26:42.546Z,571.75
2023-01-15T04:29:45.838Z,517.00
2023-01-15T04:32:50.212Z,568.85
2023-01-15T04:35:53.462Z,429.00
2023-01-15T04:38:59.941Z,423.55
2023-01-15T04:42:32.141Z,440.00
2023-01-15T04:45:35.358Z,551.42
2023-01-15T04:48:39.678Z,458.70
2023-01-15T04:51:43.109Z,1004.42
2023-01-15T04:54:47.939Z,576.58
2023-01-15T04:57:51.190Z,626.05
2023-01-15T05:00:54.443Z,539.10
2023-01-15T05:03:58.332Z,468.15
2023-01-15T05:07:03.256Z,580.30
2023-01-15T05:10:08.563Z,897.13
2023-01-15T05:13:11.856Z,526.20
2023-01-15T05:16:17.358Z,943.13
2023-01-15T05:19:20.654Z,400.30
2023-01-15T05:22:23.858Z,522.88
2023-01-15T05:25:28.547Z,530.17
2023-01-15T05:28:31.816Z,664.53
2023-01-15T05:31:35.006Z,1109.13
2023-01-15T05:34:39.561Z,1048.00
2023-01-15T05:37:42.779Z,541.22
2023-01-15T05:40:47.453Z,705.17
2023-01-15T05:43:50.710Z,1090.18
2023-01-15T05:46:55.862Z,1093.75
2023-01-15T05:49:59.182Z,554.30
2023-01-15T05:53:02.474Z,878.28
2023-01-15T05:56:07.920Z,1055.18
2023-01-15T05:59:11.303Z,899.03
2023-01-15T06:02:14.573Z,484.42
2023-01-15T06:05:20.307Z,473.90
2023-01-15T06:08:24.215Z,846.20
2023-01-15T06:11:30.664Z,526.85
2023-01-15T06:14:33.871Z,457.67
2023-01-15T06:17:37.170Z,531.28
2023-01-15T06:20:41.086Z,451.88
2023-01-15T06:23:45.509Z,567.05
2023-01-15T06:26:50.189Z,398.60
2023-01-15T06:29:53.882Z,543.67
2023-01-15T06:32:57.132Z,1041.43
2023-01-15T06:36:03.397Z,551.08
2023-01-15T06:39:06.607Z,462.77
2023-01-15T06:42:30.096Z,530.83
2023-01-15T06:45:55.814Z,436.77
2023-01-15T06:48:59.241Z,417.70
2023-01-15T06:52:03.166Z,562.55
2023-01-15T06:55:07.155Z,537.03
2023-01-15T06:58:11.807Z,397.15
2023-01-15T07:01:16.646Z,378.55
2023-01-15T07:04:20.205Z,450.08
2023-01-15T07:07:23.849Z,463.08
2023-01-15T07:10:27.216Z,924.90
2023-01-15T07:13:32.056Z,1999.90
2023-01-15T07:16:36.053Z,1298.90
2023-01-15T07:19:40.682Z,742.08
2023-01-15T07:22:45.653Z,290.92
2023-01-15T07:25:48.930Z,389.80
2023-01-15T07:28:53.635Z,679.20
2023-01-15T07:31:57.624Z,310.38
2023-01-15T07:35:00.914Z,960.72
2023-01-15T07:38:05.822Z,320.30
2023-01-15T07:41:27.960Z,332.60
2023-01-15T07:44:49.999Z,374.60
2023-01-15T07:48:12.226Z,303.00
2023-01-15T07:51:15.936Z,844.45
2023-01-15T07:54:19.981Z,693.58
2023-01-15T07:57:25.552Z,229.35
2023-01-15T08:00:30.309Z,351.45
2023-01-15T08:03:33.584Z,247.27
2023-01-15T08:06:36.898Z,220.48
2023-01-15T08:09:40.118Z,281.83
2023-01-15T08:13:00.718Z,470.48
2023-01-15T08:16:05.610Z,190.70
2023-01-15T08:19:08.839Z,275.13
2023-01-15T08:22:13.081Z,255.38
2023-01-15T08:25:18.459Z,709.50
2023-01-15T08:28:21.769Z,777.13
2023-01-15T08:31:26.747Z,194.43
2023-01-15T08:34:30.148Z,285.50
2023-01-15T08:37:33.377Z,592.22
2023-01-15T08:40:57.603Z,383.75
2023-01-15T08:44:01.511Z,355.58
2023-01-15T08:47:06.433Z,472.50
2023-01-15T08:50:11.132Z,553.67
2023-01-15T08:53:14.525Z,679.08
2023-01-15T08:56:19.569Z,317.77
2023-01-15T08:59:23.024Z,547.08
2023-01-15T09:02:29.462Z,272.55
2023-01-15T09:05:33.754Z,204.98
2023-01-15T09:08:37.041Z,534.83
2023-01-15T09:11:41.501Z,367.50
2023-01-15T09:14:59.355Z,184.43
2023-01-15T09:18:10.661Z,246.13
2023-01-15T09:21:13.894Z,213.82
2023-01-15T09:24:17.245Z,160.68
2023-01-15T09:27:20.672Z,214.80
2023-01-15T09:30:24.602Z,305.02
2023-01-15T09:33:29.408Z,643.95
2023-01-15T09:36:34.413Z,812.70
2023-01-15T09:39:39.009Z,212.60
2023-01-15T09:42:49.628Z,1187.22
2023-01-15T09:45:59.386Z,176.60
2023-01-15T09:49:16.805Z,182.45
2023-01-15T09:52:32.197Z,907.28
2023-01-15T09:55:42.048Z,663.22
2023-01-15T09:58:45.628Z,198.45
2023-01-15T10:01:53.318Z,166.80
2023-01-15T10:05:04.677Z,153.07
2023-01-15T10:08:14.472Z,273.60
2023-01-15T10:11:53.383Z,579.65
2023-01-15T10:15:03.649Z,271.70
2023-01-15T10:21:24.316Z,377.60
2023-01-15T10:24:37.049Z,206.15
2023-01-15T10:27:46.914Z,1755.25
2023-01-15T10:30:55.384Z,116.47
2023-01-15T10:34:11.534Z,241.35
2023-01-15T10:37:25.188Z,198.25
2023-01-15T10:40:52.269Z,1057.25
2023-01-15T10:44:01.709Z,165.80
2023-01-15T10:47:13.703Z,543.10
2023-01-15T10:50:20.116Z,1247.95
2023-01-15T10:53:32.366Z,225.23
2023-01-15T10:56:42.152Z,224.35
2023-01-15T10:59:51.265Z,142.65
2023-01-15T11:03:03.181Z,934.53
2023-01-15T11:06:12.851Z,408.40
2023-01-15T11:09:23.393Z,112.88
2023-01-15T11:12:47.395Z,123.50
2023-01-15T11:16:08.767Z,380.70
2023-01-15T11:19:40.491Z,226.60
2023-01-15T11:22:45.006Z,457.92
2023-01-15T11:25:55.790Z,429.90
2023-01-15T11:29:01.610Z,119.00
2023-01-15T11:32:05.481Z,118.78
2023-01-15T11:35:17.994Z,171.95
2023-01-15T11:38:23.144Z,124.75
2023-01-15T11:41:51.635Z,183.82
2023-01-15T11:45:19.632Z,146.15
2023-01-15T11:48:42.094Z,189.00
2023-01-15T11:51:49.971Z,696.90
2023-01-15T11:54:56.487Z,599.47
2023-01-15T11:58:03.106Z,694.13
2023-01-15T12:01:06.775Z,844.90
2023-01-15T12:04:27.424Z,1194.85
2023-01-15T12:07:31.255Z,208.40
2023-01-15T12:11:00.948Z,171.68
2023-01-15T12:14:45.558Z,98.50
2023-01-15T12:18:21.516Z,1477.03
2023-01-15T12:22:04.843Z,123.07
2023-01-15T12:25:32.000Z,134.25
2023-01-15T12:28:39.157Z,164.02
2023-01-15T12:31:50.402Z,160.77
2023-01-15T12:34:58.906Z,391.05
2023-01-15T12:38:14.807Z,915.95
2023-01-15T12:41:24.113Z,139.93
2023-01-15T12:44:55.017Z,111.53
2023-01-15T12:48:06.571Z,568.78
2023-01-15T12:51:14.664Z,786.65
2023-01-15T12:54:25.249Z,886.22
2023-01-15T12:57:34.811Z,688.65
2023-01-15T13:00:42.889Z,443.48
2023-01-15T13:04:12.241Z,961.83
2023-01-15T13:07:23.145Z,512.70
2023-01-15T13:10:28.572Z,538.25
2023-01-15T13:13:34.317Z,741.50
2023-01-15T13:16:46.374Z,1293.45
2023-01-15T13:20:04.659Z,992.83
2023-01-15T13:23:19.152Z,470.42
2023-01-15T13:26:42.034Z,430.15
2023-01-15T13:29:58.187Z,585.65
2023-01-15T13:33:13.942Z,732.92
2023-01-15T13:36:25.892Z,508.63
2023-01-15T13:39:39.112Z,1205.85
2023-01-15T13:42:49.601Z,592.90
2023-01-15T13:48:56.390Z,625.22
2023-01-15T13:52:04.301Z,646.80
2023-01-15T13:55:14.260Z,677.90
2023-01-15T13:58:27.164Z,876.83
2023-01-15T14:01:35.468Z,1038.22
2023-01-15T14:04:40.892Z,1058.20
2023-01-15T14:07:45.568Z,932.30
2023-01-15T14:10:49.881Z,924.00
2023-01-15T14:14:10.603Z,1198.32
2023-01-15T14:17:57.541Z,989.03
2023-01-15T14:21:20.939Z,1947.15
2023-01-15T14:24:57.691Z,988.65
2023-01-15T14:28:25.287Z,957.63
2023-01-15T14:31:51.094Z,885.50
2023-01-15T14:34:59.470Z,860.33
2023-01-15T14:38:07.521Z,1030.63
2023-01-15T14:41:13.771Z,1999.45
2023-01-15T14:44:17.304Z,995.80
2023-01-15T14:47:32.002Z,810.50
2023-01-15T14:50:39.436Z,1393.32
2023-01-15T14:53:46.278Z,1475.30
2023-01-15T14:56:53.155Z,1324.85
2023-01-15T15:00:00.853Z,966.88
2023-01-15T15:03:14.811Z,946.90
2023-01-15T15:06:19.245Z,1060.47
2023-01-15T15:09:34.682Z,924.83
2023-01-15T15:12:44.837Z,1557.90
2023-01-15T15:15:54.806Z,1066.88
2023-01-15T15:19:03.230Z,997.60
2023-01-15T15:22:11.851Z,1923.88
2023-01-15T15:25:22.491Z,1571.43
2023-01-15T15:28:27.769Z,1060.95
2023-01-15T15:31:37.680Z,1999.90
2023-01-15T15:34:47.027Z,1151.57
2023-01-15T15:37:51.475Z,1224.55
2023-01-15T15:40:59.004Z,1344.50
2023-01-15T15:44:22.166Z,1160.47
2023-01-15T15:47:45.033Z,1061.93
2023-01-15T15:50:49.674Z,1338.35
2023-01-15T15:54:03.470Z,1119.82
2023-01-15T15:57:10.085Z,1882.38
2023-01-15T16:00:20.767Z,1081.70
2023-01-15T16:03:27.112Z,1463.75
2023-01-15T16:06:30.902Z,1739.00
2023-01-15T16:09:35.151Z,1323.75
2023-01-15T16:12:44.052Z,1160.80
2023-01-15T16:15:55.903Z,1085.60
2023-01-15T16:19:01.408Z,1986.75
2023-01-15T16:22:07.662Z,1348.30
2023-01-15T16:25:23.464Z,1078.57
2023-01-15T16:28:31.051Z,1535.00
2023-01-15T16:31:37.383Z,1106.65
2023-01-15T16:34:41.637Z,1165.65
2023-01-15T16:37:48.833Z,1385.13
2023-01-15T16:40:52.462Z,1275.20
2023-01-15T16:43:57.944Z,1154.50
2023-01-15T16:47:04.016Z,1910.07
2023-01-15T16:50:29.831Z,1942.97
2023-01-15T16:53:39.971Z,1041.93
2023-01-15T16:56:57.540Z,1125.88
2023-01-15T17:00:07.122Z,1708.20
2023-01-15T17:03:14.805Z,1029.88
2023-01-15T17:06:23.435Z,1552.38
2023-01-15T17:09:27.667Z,1085.22
2023-01-15T17:12:34.823Z,1206.25
2023-01-15T17:15:40.670Z,1999.90
2023-01-15T17:18:46.070Z,1179.82
2023-01-15T17:21:49.341Z,1999.90
2023-01-15T17:24:55.525Z,1128.05
2023-01-15T17:28:00.151Z,1731.55
2023-01-15T17:31:04.307Z,1413.15
2023-01-15T17:34:09.079Z,1124.97
2023-01-15T17:37:12.902Z,1584.90
2023-01-15T17:40:16.445Z,1905.22
2023-01-15T17:43:19.901Z,1106.35
2023-01-15T17:46:24.506Z,1766.50
2023-01-15T17:49:29.423Z,1165.28
2023-01-15T17:52:32.786Z,1333.60
2023-01-15T17:55:54.161Z,1144.63
2023-01-15T17:59:14.827Z,1086.13
2023-01-15T18:02:36.020Z,1743.93
2023-01-15T18:05:41.416Z,1143.70
2023-01-15T18:08:48.765Z,1428.07
2023-01-15T18:11:52.204Z,1500.50
2023-01-15T18:14:55.730Z,1392.68
2023-01-15T18:17:59.152Z,1999.90
2023-01-15T18:21:04.554Z,1040.60
2023-01-15T18:24:09.574Z,1990.15
2023-01-15T18:27:13.569Z,1039.45
2023-01-15T18:30:19.557Z,1057.90
2023-01-15T18:33:22.917Z,942.35
2023-01-15T18:36:29.270Z,1417.97
2023-01-15T18:39:35.174Z,1218.63
2023-01-15T18:42:57.753Z,944.85
2023-01-15T18:46:18.611Z,1120.75
2023-01-15T18:49:22.520Z,1078.30
2023-01-15T18:52:45.110Z,1030.70
2023-01-15T18:55:48.578Z,1259.25
2023-01-15T18:58:51.991Z,1570.30
2023-01-15T19:01:56.363Z,1091.68
2023-01-15T19:05:00.771Z,1265.50
2023-01-15T19:08:05.783Z,1083.78
2023-01-15T19:11:14.728Z,1250.15
2023-01-15T19:14:35.709Z,1054.90
2023-01-15T19:17:57.093Z,1303.32
2023-01-15T19:21:01.212Z,981.92
2023-01-15T19:24:07.113Z,927.47
2023-01-15T19:27:10.912Z,769.38
2023-01-15T19:30:15.832Z,946.67
2023-01-15T19:33:19.761Z,961.85
2023-01-15T19:36:23.399Z,845.65
2023-01-15T19:39:28.930Z,1012.80
2023-01-15T19:42:49.816Z,1110.03
2023-01-15T19:46:10.259Z,1316.22
2023-01-15T19:52:41.746Z,1069.53
2023-01-15T19:55:47.421Z,1047.30
2023-01-15T19:58:50.929Z,1645.07
2023-01-15T20:01:55.633Z,1071.70
2023-01-15T20:05:02.251Z,1144.72
2023-01-15T20:08:09.556Z,1593.00
2023-01-15T20:11:15.855Z,1019.38
2023-01-15T20:14:19.388Z,1083.25
2023-01-15T20:17:23.105Z,1039.80
2023-01-15T20:20:27.623Z,1070.38
2023-01-15T20:23:31.297Z,1042.97
2023-01-15T20:26:39.552Z,1067.38
2023-01-15T20:29:45.718Z,1072.00
2023-01-15T20:32:50.257Z,1032.50
2023-01-15T20:35:55.074Z,1040.03
2023-01-15T20:39:00.306Z,1068.60
2023-01-15T20:42:19.242Z,1046.78
2023-01-15T20:45:22.870Z,1061.63
2023-01-15T20:48:43.837Z,1087.25
2023-01-15T20:51:48.173Z,1038.88
2023-01-15T20:54:51.746Z,1062.95
2023-01-15T20:57:57.388Z,1045.75
2023-01-15T21:01:06.895Z,1082.78
2023-01-15T21:04:13.918Z,818.92
2023-01-15T21:07:17.461Z,1014.30
2023-01-15T21:10:23.043Z,1052.03
2023-01-15T21:13:27.964Z,1411.80
2023-01-15T21:16:31.532Z,1094.22
2023-01-15T21:19:34.851Z,1085.20
2023-01-15T21:22:38.387Z,1089.38
2023-01-15T21:25:41.766Z,1080.53
2023-01-15T21:28:46.621Z,1168.03
2023-01-15T21:31:49.883Z,1150.70
2023-01-15T21:34:53.241Z,1159.70
2023-01-15T21:37:56.469Z,1049.50
2023-01-15T21:40:59.796Z,1219.40
2023-01-15T21:44:24.436Z,1124.28
2023-01-15T21:47:27.828Z,1071.97
2023-01-15T21:50:31.126Z,1064.65
2023-01-15T21:53:34.460Z,1086.68
2023-01-15T21:56:39.534Z,1086.82
2023-01-15T21:59:44.141Z,1062.53
2023-01-15T22:02:47.486Z,1075.45
2023-01-15T22:05:50.757Z,1075.07
2023-01-15T22:08:55.304Z,1093.25
2023-01-15T22:11:58.662Z,1085.05
2023-01-15T22:15:03.412Z,1076.97
2023-01-15T22:18:06.871Z,1102.95
2023-01-15T22:21:15.355Z,1118.30
2023-01-15T22:24:19.699Z,1115.75
2023-01-15T22:27:23.091Z,1102.43
2023-01-15T22:30:27.817Z,1095.13
2023-01-15T22:33:31.238Z,1133.80
2023-01-15T22:36:34.561Z,1068.38
2023-01-15T22:39:37.829Z,1101.13
2023-01-15T22:42:41.142Z,1072.10
2023-01-15T22:45:45.823Z,1126.38
2023-01-15T22:48:49.085Z,1126.00
2023-01-15T22:51:53.191Z,1090.78
2023-01-15T22:54:56.463Z,1060.43
2023-01-15T22:57:59.781Z,1126.43
2023-01-15T23:01:05.119Z,1128.63
2023-01-15T23:04:13.144Z,1110.18
2023-01-15T23:07:16.431Z,1136.75
2023-01-15T23:10:19.808Z,1115.75
2023-01-15T23:13:23.132Z,1499.70
2023-01-15T23:16:27.944Z,1162.07
2023-01-15T23:19:31.306Z,1109.40
2023-01-15T23:22:34.616Z,1101.55
2023-01-15T23:25:37.925Z,1129.25
2023-01-15T23:28:41.671Z,1128.35
2023-01-15T23:31:46.316Z,1098.30
2023-01-15T23:34:49.613Z,1147.15
2023-01-15T23:37:53.000Z,1127.20
2023-01-15T23:40:57.247Z,1324.40
2023-01-15T23:44:17.817Z,1151.07
2023-01-15T23:47:22.693Z,1130.43
2023-01-15T23:50:26.123Z,1112.07
2023-01-15T23:53:29.486Z,1128.72
2023-01-15T23:56:33.974Z,1118.88
2023-01-15T23:59:37.686Z,1112.20
